Time;durP1;ratioP1;P1;durP2;ratioP2;P2;SDS_P1;SDS_P2;PMS_P1;PMS_P2;Temp;Humidity;BMP_temperature;BMP_pressure;BME280_temperature;BME280_humidity;BME280_pressure;Samples;Min_cycle;Max_cycle;Signal;HPM_P1;HPM_P2
2023/12/22 00:00:50;;;;;;;16.35;3.45;;;;;;;;;;5032200;28;21207;-68
2023/12/22 00:03:16;;;;;;;21.52;3.85;;;;;;;;;;5051567;28;20056;-68
2023/12/22 00:05:42;;;;;;;20.38;4.00;;;;;;;;;;5053933;28;20045;-68
2023/12/22 00:08:08;;;;;;;18.63;3.90;;;;;;;;;;5057885;28;20043;-68
2023/12/22 00:10:34;;;;;;;19.77;4.50;;;;;;;;;;5054478;28;20410;-68
2023/12/22 00:13:00;;;;;;;26.23;4.70;;;;;;;;;;5055212;28;20037;-68
2023/12/22 00:15:26;;;;;;;17.98;3.03;;;;;;;;;;5054813;28;20032;-68
2023/12/22 00:17:52;;;;;;;23.00;3.50;;;;;;;;;;5057672;28;20072;-69
2023/12/22 00:20:19;;;;;;;27.75;3.75;;;;;;;;;;5037471;28;20470;-68
2023/12/22 00:22:44;;;;;;;20.98;3.53;;;;;;;;;;5055995;28;20454;-68
2023/12/22 00:25:11;;;;;;;19.85;4.28;;;;;;;;;;5036396;28;20041;-68
2023/12/22 00:27:36;;;;;;;17.45;3.53;;;;;;;;;;5053973;28;20079;-68
2023/12/22 00:30:03;;;;;;;19.48;4.03;;;;;;;;;;5049137;28;20037;-68
2023/12/22 00:32:29;;;;;;;24.33;4.70;;;;;;;;;;5034429;28;20033;-68
2023/12/22 00:34:56;;;;;;;20.45;3.72;;;;;;;;;;5053726;28;20052;-68
2023/12/22 00:37:22;;;;;;;22.15;4.30;;;;;;;;;;5053532;28;20090;-68
2023/12/22 00:39:48;;;;;;;22.05;4.32;;;;;;;;;;5055686;28;20483;-68
2023/12/22 00:42:14;;;;;;;29.27;4.70;;;;;;;;;;5055294;28;20064;-67
2023/12/22 00:44:40;;;;;;;25.90;4.63;;;;;;;;;;5052330;28;20041;-67
2023/12/22 00:47:06;;;;;;;21.27;4.50;;;;;;;;;;5051709;28;20546;-67
2023/12/22 00:49:32;;;;;;;26.30;4.00;;;;;;;;;;5054190;28;20040;-67
2023/12/22 00:51:58;;;;;;;18.10;4.10;;;;;;;;;;5050049;28;20041;-67
2023/12/22 00:54:25;;;;;;;22.88;3.97;;;;;;;;;;5051442;28;20036;-67
2023/12/22 00:56:51;;;;;;;20.08;3.67;;;;;;;;;;5053772;28;20041;-68
2023/12/22 00:59:16;;;;;;;17.70;2.72;;;;;;;;;;5050151;28;20044;-68
2023/12/22 01:01:44;;;;;;;15.55;2.83;;;;;;;;;;5052014;28;20041;-68
2023/12/22 01:04:10;;;;;;;11.48;2.03;;;;;;;;;;5033467;28;20099;-68
2023/12/22 01:06:40;;;;;;;15.98;2.70;;;;;;;;;;5052131;28;20517;-68
2023/12/22 01:09:06;;;;;;;11.20;2.20;;;;;;;;;;5054528;28;20063;-68
2023/12/22 01:11:32;;;;;;;17.70;3.05;;;;;;;;;;5053312;28;20491;-68
2023/12/22 01:13:58;;;;;;;14.48;2.90;;;;;;;;;;5053884;28;20032;-68
2023/12/22 01:16:24;;;;;;;14.90;2.80;;;;;;;;;;5052940;28;20056;-68
2023/12/22 01:18:53;;;;;;;17.05;3.33;;;;;;;;;;5053415;28;20044;-68
2023/12/22 01:21:19;;;;;;;20.70;3.42;;;;;;;;;;5054041;28;20041;-68
2023/12/22 01:23:45;;;;;;;17.30;3.53;;;;;;;;;;5054127;28;20040;-68
2023/12/22 01:26:11;;;;;;;19.00;3.65;;;;;;;;;;5052548;28;20045;-68
2023/12/22 01:28:37;;;;;;;19.45;3.63;;;;;;;;;;5053399;28;20102;-68
2023/12/22 01:31:03;;;;;;;18.38;3.42;;;;;;;;;;5053913;28;20077;-68
2023/12/22 01:33:32;;;;;;;20.92;3.75;;;;;;;;;;5052861;28;20067;-68
2023/12/22 01:35:57;;;;;;;17.65;3.25;;;;;;;;;;5053512;28;20040;-67
2023/12/22 01:38:23;;;;;;;25.77;3.40;;;;;;;;;;5053162;28;20152;-67
2023/12/22 01:40:49;;;;;;;15.35;3.67;;;;;;;;;;5053374;28;20036;-67
2023/12/22 01:43:21;;;;;;;21.25;4.35;;;;;;;;;;5053465;28;20037;-67
2023/12/22 01:45:47;;;;;;;24.67;3.65;;;;;;;;;;5046976;28;20044;-67
2023/12/22 01:48:13;;;;;;;20.20;3.00;;;;;;;;;;5052270;28;20041;-68
2023/12/22 01:50:39;;;;;;;20.52;3.17;;;;;;;;;;5052878;28;20044;-68
2023/12/22 01:53:05;;;;;;;20.92;3.33;;;;;;;;;;5052394;28;20556;-68
2023/12/22 01:55:31;;;;;;;23.23;3.42;;;;;;;;;;5053403;28;20398;-68
2023/12/22 01:57:58;;;;;;;19.30;3.72;;;;;;;;;;5053148;28;20353;-68
2023/12/22 02:00:24;;;;;;;21.88;3.75;;;;;;;;;;5053078;28;20052;-68
2023/12/22 02:02:50;;;;;;;18.08;3.05;;;;;;;;;;5052279;28;20037;-68
2023/12/22 02:05:16;;;;;;;18.00;3.33;;;;;;;;;;5051662;28;20376;-68
2023/12/22 02:07:42;;;;;;;15.88;3.05;;;;;;;;;;5055483;28;20114;-68
2023/12/22 02:10:09;;;;;;;19.73;3.15;;;;;;;;;;5034996;28;20056;-68
2023/12/22 02:12:35;;;;;;;19.98;3.40;;;;;;;;;;5052618;28;20037;-68
2023/12/22 02:15:01;;;;;;;18.83;3.33;;;;;;;;;;5034985;28;20403;-68
2023/12/22 02:17:33;;;;;;;15.07;3.05;;;;;;;;;;5033469;28;20057;-68
2023/12/22 02:19:59;;;;;;;19.58;3.72;;;;;;;;;;5052930;28;20510;-69
2023/12/22 02:22:25;;;;;;;22.65;3.45;;;;;;;;;;5052130;28;20047;-69
2023/12/22 02:24:51;;;;;;;17.25;3.53;;;;;;;;;;5052603;28;20125;-68
2023/12/22 02:27:36;;;;;;;24.98;4.10;;;;;;;;;;5051991;28;20037;-68
2023/12/22 02:30:21;;;;;;;20.73;3.80;;;;;;;;;;5048104;28;20048;-68
2023/12/22 02:32:48;;;;;;;16.63;3.53;;;;;;;;;;5046638;28;20037;-68
2023/12/22 02:35:15;;;;;;;18.45;3.78;;;;;;;;;;5053049;28;20039;-68
2023/12/22 02:37:41;;;;;;;24.17;4.22;;;;;;;;;;5051606;28;20132;-68
2023/12/22 02:40:11;;;;;;;20.92;3.75;;;;;;;;;;5051812;28;20457;-68
2023/12/22 02:42:38;;;;;;;20.83;4.00;;;;;;;;;;5050703;28;20112;-68
2023/12/22 02:45:07;;;;;;;20.00;4.10;;;;;;;;;;5057211;28;20134;-68
2023/12/22 02:47:33;;;;;;;20.20;3.67;;;;;;;;;;5051418;28;20033;-68
2023/12/22 02:49:59;;;;;;;22.85;3.97;;;;;;;;;;5053027;28;20083;-68
2023/12/22 02:52:25;;;;;;;12.30;3.22;;;;;;;;;;5051687;28;20467;-68
2023/12/22 02:54:51;;;;;;;16.33;2.60;;;;;;;;;;5054306;28;20479;-68
2023/12/22 02:57:17;;;;;;;14.57;2.72;;;;;;;;;;5053544;28;20063;-68
2023/12/22 02:59:43;;;;;;;18.00;2.72;;;;;;;;;;5051763;28;20499;-68
2023/12/22 03:02:09;;;;;;;20.23;2.88;;;;;;;;;;5049695;28;20028;-68
2023/12/22 03:04:35;;;;;;;11.85;2.13;;;;;;;;;;5051044;28;20072;-69
2023/12/22 03:07:01;;;;;;;10.48;2.72;;;;;;;;;;5049668;28;20040;-69
2023/12/22 03:09:27;;;;;;;12.85;2.42;;;;;;;;;;5049755;28;20119;-69
2023/12/22 03:11:54;;;;;;;10.63;2.00;;;;;;;;;;5050061;28;20106;-69
2023/12/22 03:14:20;;;;;;;9.63;1.73;;;;;;;;;;5029450;28;20048;-69
2023/12/22 03:16:46;;;;;;;9.00;2.15;;;;;;;;;;5048366;28;20086;-69
2023/12/22 03:19:12;;;;;;;10.02;2.60;;;;;;;;;;5050352;28;20029;-69
2023/12/22 03:21:38;;;;;;;10.93;1.80;;;;;;;;;;5050958;28;20057;-69
2023/12/22 03:24:04;;;;;;;11.00;1.98;;;;;;;;;;5051512;28;20036;-69
2023/12/22 03:26:30;;;;;;;12.45;2.20;;;;;;;;;;5051005;28;20045;-69
2023/12/22 03:28:56;;;;;;;14.23;1.98;;;;;;;;;;5055311;28;20407;-69
2023/12/22 03:31:22;;;;;;;16.20;2.00;;;;;;;;;;5050888;28;20033;-69
2023/12/22 03:33:48;;;;;;;14.55;2.35;;;;;;;;;;5050647;28;20033;-69
2023/12/22 03:36:14;;;;;;;13.88;2.05;;;;;;;;;;5052266;28;20450;-69
2023/12/22 03:38:40;;;;;;;10.55;1.98;;;;;;;;;;5057762;28;20037;-68
2023/12/22 03:41:06;;;;;;;9.10;1.80;;;;;;;;;;5050039;28;20398;-69
2023/12/22 03:43:33;;;;;;;7.57;1.75;;;;;;;;;;5050577;28;20114;-69
2023/12/22 03:45:59;;;;;;;11.50;2.13;;;;;;;;;;5051097;28;20040;-69
2023/12/22 03:48:25;;;;;;;14.95;2.45;;;;;;;;;;5051875;28;20120;-69
2023/12/22 03:50:50;;;;;;;10.30;1.90;;;;;;;;;;5033285;28;20486;-69
2023/12/22 03:53:16;;;;;;;13.82;2.35;;;;;;;;;;5050396;28;20037;-69
2023/12/22 03:55:42;;;;;;;9.43;2.17;;;;;;;;;;5050724;28;20079;-69
2023/12/22 03:58:10;;;;;;;21.13;2.67;;;;;;;;;;5053902;28;20078;-69
2023/12/22 04:00:36;;;;;;;10.43;2.10;;;;;;;;;;5054661;28;20110;-69
2023/12/22 04:03:02;;;;;;;11.82;2.08;;;;;;;;;;5050937;28;20453;-69
2023/12/22 04:05:28;;;;;;;12.65;2.78;;;;;;;;;;5050669;28;20045;-69
2023/12/22 04:07:54;;;;;;;12.32;2.53;;;;;;;;;;5049441;28;20415;-69
2023/12/22 04:10:20;;;;;;;7.90;1.90;;;;;;;;;;5047736;28;20036;-69
2023/12/22 04:12:46;;;;;;;9.00;2.22;;;;;;;;;;5055694;28;20560;-69
2023/12/22 04:15:12;;;;;;;17.60;2.47;;;;;;;;;;5050261;28;20037;-69
2023/12/22 04:17:39;;;;;;;17.88;3.42;;;;;;;;;;5050772;28;20403;-69
2023/12/22 04:20:06;;;;;;;15.43;2.30;;;;;;;;;;5046781;28;20137;-68
2023/12/22 04:22:32;;;;;;;14.85;2.47;;;;;;;;;;5049511;28;20041;-68
2023/12/22 04:24:58;;;;;;;19.30;3.13;;;;;;;;;;5050451;28;20115;-68
2023/12/22 04:27:23;;;;;;;13.43;2.92;;;;;;;;;;5050506;28;20040;-68
2023/12/22 04:29:49;;;;;;;17.55;2.78;;;;;;;;;;5053917;28;20032;-68
2023/12/22 04:32:15;;;;;;;11.93;2.40;;;;;;;;;;5050511;28;20041;-68
2023/12/22 04:34:41;;;;;;;14.32;2.80;;;;;;;;;;5054179;28;20072;-68
2023/12/22 04:37:07;;;;;;;16.40;2.60;;;;;;;;;;5050487;28;20488;-68
2023/12/22 04:39:33;;;;;;;13.27;2.55;;;;;;;;;;5052997;28;20052;-68
2023/12/22 04:41:59;;;;;;;14.70;2.97;;;;;;;;;;5049288;28;20036;-68
2023/12/22 04:44:25;;;;;;;12.80;2.60;;;;;;;;;;5055975;28;20123;-68
2023/12/22 04:46:51;;;;;;;14.65;2.50;;;;;;;;;;5049732;28;20049;-68
2023/12/22 04:49:18;;;;;;;15.40;2.53;;;;;;;;;;5061553;22;20407;-73
2023/12/22 04:51:44;;;;;;;16.02;2.70;;;;;;;;;;5051304;28;20491;-73
2023/12/22 04:54:10;;;;;;;12.90;2.00;;;;;;;;;;5049121;28;20091;-72
2023/12/22 04:56:36;;;;;;;19.10;2.65;;;;;;;;;;5054070;28;20057;-72
2023/12/22 04:59:02;;;;;;;15.68;3.00;;;;;;;;;;5053681;28;20127;-72
2023/12/22 05:01:28;;;;;;;15.65;3.42;;;;;;;;;;5053907;28;20079;-71
2023/12/22 05:03:54;;;;;;;16.77;3.00;;;;;;;;;;5053662;28;20033;-71
2023/12/22 05:06:20;;;;;;;16.65;2.53;;;;;;;;;;5054437;28;20112;-71
2023/12/22 05:08:46;;;;;;;10.80;2.80;;;;;;;;;;5046949;28;20037;-70
2023/12/22 05:11:12;;;;;;;17.73;2.78;;;;;;;;;;5053549;28;20041;-70
2023/12/22 05:13:40;;;;;;;17.35;3.20;;;;;;;;;;5055138;28;20059;-72
2023/12/22 05:16:06;;;;;;;16.10;3.42;;;;;;;;;;5055040;28;20076;-72
2023/12/22 05:18:32;;;;;;;22.05;3.08;;;;;;;;;;5056178;28;20052;-72
2023/12/22 05:20:58;;;;;;;19.23;2.53;;;;;;;;;;5055184;28;20047;-72
2023/12/22 05:23:24;;;;;;;17.92;2.97;;;;;;;;;;5055203;28;20040;-72
2023/12/22 05:25:51;;;;;;;14.40;3.10;;;;;;;;;;5054252;28;20539;-72
2023/12/22 05:28:17;;;;;;;11.30;2.47;;;;;;;;;;5054858;28;20044;-72
2023/12/22 05:30:43;;;;;;;18.13;3.33;;;;;;;;;;5054544;28;20037;-72
2023/12/22 05:33:09;;;;;;;14.68;2.60;;;;;;;;;;5053109;28;20033;-72
2023/12/22 05:35:35;;;;;;;16.27;2.65;;;;;;;;;;5055498;28;20163;-72
2023/12/22 05:38:01;;;;;;;18.90;3.40;;;;;;;;;;5054013;28;20535;-72
2023/12/22 05:40:27;;;;;;;14.73;2.60;;;;;;;;;;5059070;28;20363;-72
2023/12/22 05:42:53;;;;;;;15.32;2.63;;;;;;;;;;5053032;28;20399;-72
2023/12/22 05:45:19;;;;;;;15.25;3.08;;;;;;;;;;5048705;28;20041;-72
2023/12/22 05:47:45;;;;;;;18.08;3.30;;;;;;;;;;5054861;28;20040;-72
2023/12/22 05:50:12;;;;;;;16.48;2.88;;;;;;;;;;5053657;28;20040;-72
2023/12/22 05:52:38;;;;;;;19.02;3.25;;;;;;;;;;5054916;28;20036;-72
2023/12/22 05:55:04;;;;;;;17.95;2.72;;;;;;;;;;5055309;28;20551;-72
2023/12/22 05:57:30;;;;;;;18.08;3.08;;;;;;;;;;5058045;28;20487;-72
2023/12/22 05:59:56;;;;;;;16.00;2.88;;;;;;;;;;5054489;28;20044;-72
2023/12/22 06:02:22;;;;;;;19.98;2.88;;;;;;;;;;5056347;28;20039;-72
2023/12/22 06:04:48;;;;;;;18.58;4.07;;;;;;;;;;5055209;28;20033;-71
2023/12/22 06:07:14;;;;;;;19.67;3.15;;;;;;;;;;5054322;28;20086;-71
2023/12/22 06:09:40;;;;;;;21.20;3.45;;;;;;;;;;5062588;28;20040;-72
2023/12/22 06:12:06;;;;;;;17.23;2.72;;;;;;;;;;5054017;28;20041;-71
2023/12/22 06:14:34;;;;;;;23.85;3.55;;;;;;;;;;5053523;28;20097;-72
2023/12/22 06:17:00;;;;;;;14.52;2.92;;;;;;;;;;5057221;28;20057;-72
2023/12/22 06:19:28;;;;;;;20.90;3.33;;;;;;;;;;5057459;28;20044;-72
2023/12/22 06:21:54;;;;;;;21.80;3.15;;;;;;;;;;5056199;28;20041;-72
2023/12/22 06:24:20;;;;;;;18.40;3.45;;;;;;;;;;5061827;28;20040;-72
2023/12/22 06:26:47;;;;;;;19.88;3.15;;;;;;;;;;5062559;28;20067;-72
2023/12/22 06:29:13;;;;;;;14.50;3.28;;;;;;;;;;5051301;28;20040;-71
2023/12/22 06:31:39;;;;;;;13.63;3.15;;;;;;;;;;5051384;28;20052;-72
2023/12/22 06:34:05;;;;;;;15.15;2.75;;;;;;;;;;5050646;28;20029;-72
2023/12/22 06:36:31;;;;;;;12.10;2.75;;;;;;;;;;5051298;28;20052;-72
2023/12/22 06:39:00;;;;;;;15.65;3.00;;;;;;;;;;5052365;28;20628;-72
2023/12/22 06:41:28;;;;;;;16.50;3.25;;;;;;;;;;5051776;28;20509;-71
2023/12/22 06:43:55;;;;;;;20.17;3.03;;;;;;;;;;5052533;28;20407;-72
2023/12/22 06:46:22;;;;;;;16.42;2.80;;;;;;;;;;5052414;28;20179;-71
2023/12/22 06:48:49;;;;;;;17.13;2.67;;;;;;;;;;5044107;28;20048;-72
2023/12/22 06:51:26;;;;;;;19.25;2.90;;;;;;;;;;5051317;28;20071;-72
2023/12/22 06:53:52;;;;;;;15.48;2.85;;;;;;;;;;5047038;28;20060;-72
2023/12/22 06:56:20;;;;;;;12.38;3.17;;;;;;;;;;5052426;28;20422;-72
2023/12/22 06:58:48;;;;;;;17.85;3.10;;;;;;;;;;5051444;28;20116;-72
2023/12/22 07:01:20;;;;;;;18.20;2.70;;;;;;;;;;5048572;28;20158;-72
2023/12/22 07:03:47;;;;;;;18.92;3.45;;;;;;;;;;5051931;28;20041;-72
2023/12/22 07:06:13;;;;;;;14.80;2.90;;;;;;;;;;5052154;28;20044;-72
2023/12/22 07:08:39;;;;;;;13.75;2.97;;;;;;;;;;5044402;28;20167;-72
2023/12/22 07:11:07;;;;;;;14.25;2.97;;;;;;;;;;5047326;28;20123;-72
2023/12/22 07:13:33;;;;;;;20.17;3.15;;;;;;;;;;5053132;28;20041;-72
2023/12/22 07:15:59;;;;;;;16.15;2.78;;;;;;;;;;5051183;28;20058;-72
2023/12/22 07:18:25;;;;;;;14.98;2.70;;;;;;;;;;5051977;28;20033;-72
2023/12/22 07:20:51;;;;;;;13.60;2.90;;;;;;;;;;5053060;28;20040;-72
2023/12/22 07:23:17;;;;;;;13.05;2.55;;;;;;;;;;5054575;28;20116;-72
2023/12/22 07:25:43;;;;;;;12.95;2.75;;;;;;;;;;5041369;28;20120;-72
2023/12/22 07:28:09;;;;;;;17.85;2.83;;;;;;;;;;5051510;28;20033;-72
2023/12/22 07:30:35;;;;;;;15.27;2.85;;;;;;;;;;5054374;28;20069;-72
2023/12/22 07:33:01;;;;;;;16.17;2.72;;;;;;;;;;5055860;28;20044;-72
2023/12/22 07:35:27;;;;;;;10.45;2.78;;;;;;;;;;5052644;28;20037;-72
2023/12/22 07:37:53;;;;;;;20.42;2.92;;;;;;;;;;5051920;28;20037;-72
2023/12/22 07:40:19;;;;;;;19.90;2.58;;;;;;;;;;5056342;28;20036;-72
2023/12/22 07:42:45;;;;;;;14.55;3.20;;;;;;;;;;5043008;28;20041;-72
2023/12/22 07:45:11;;;;;;;17.13;3.00;;;;;;;;;;5048038;28;20356;-72
2023/12/22 07:47:37;;;;;;;18.85;3.20;;;;;;;;;;5052256;28;20040;-72
2023/12/22 07:50:08;;;;;;;15.43;2.97;;;;;;;;;;5056268;28;20182;-72
2023/12/22 07:52:34;;;;;;;20.42;3.20;;;;;;;;;;5056611;28;20036;-72
2023/12/22 07:54:59;;;;;;;12.35;2.80;;;;;;;;;;5058599;28;20048;-72
2023/12/22 07:57:25;;;;;;;15.85;3.10;;;;;;;;;;5051594;28;20060;-72
2023/12/22 07:59:52;;;;;;;21.63;3.08;;;;;;;;;;5061549;28;20025;-72
2023/12/22 08:02:18;;;;;;;18.23;3.40;;;;;;;;;;5060114;28;20179;-72
2023/12/22 08:04:44;;;;;;;19.38;3.03;;;;;;;;;;5053584;28;20124;-72
2023/12/22 08:07:10;;;;;;;21.55;3.42;;;;;;;;;;5050750;28;20406;-72
2023/12/22 08:09:36;;;;;;;20.13;3.22;;;;;;;;;;5050649;28;20036;-72
2023/12/22 08:12:02;;;;;;;23.60;3.50;;;;;;;;;;5050908;28;20048;-72
2023/12/22 08:14:28;;;;;;;19.20;3.38;;;;;;;;;;5053335;28;20044;-72
2023/12/22 08:16:54;;;;;;;18.10;3.65;;;;;;;;;;5064985;28;20032;-71
2023/12/22 08:19:21;;;;;;;20.88;3.30;;;;;;;;;;5063442;28;20047;-72
2023/12/22 08:21:47;;;;;;;18.13;3.47;;;;;;;;;;5048698;28;20098;-73
2023/12/22 08:24:13;;;;;;;18.33;2.95;;;;;;;;;;5063912;28;20033;-71
2023/12/22 08:26:39;;;;;;;22.33;3.20;;;;;;;;;;5065710;28;20072;-71
2023/12/22 08:29:05;;;;;;;15.05;3.10;;;;;;;;;;5066815;28;20068;-71
2023/12/22 08:31:31;;;;;;;18.13;2.75;;;;;;;;;;5067795;28;20041;-71
2023/12/22 08:33:56;;;;;;;15.48;2.90;;;;;;;;;;5067620;28;20068;-71
2023/12/22 08:36:22;;;;;;;16.98;2.63;;;;;;;;;;5049789;28;20106;-71
2023/12/22 08:38:48;;;;;;;17.25;2.88;;;;;;;;;;5062132;28;20040;-71
2023/12/22 08:41:14;;;;;;;16.55;2.63;;;;;;;;;;5067219;28;20086;-71
2023/12/22 08:43:40;;;;;;;16.50;2.58;;;;;;;;;;5051935;28;20082;-71
2023/12/22 08:46:06;;;;;;;11.68;2.42;;;;;;;;;;5068890;28;20045;-71
2023/12/22 08:48:32;;;;;;;12.43;1.95;;;;;;;;;;5064855;28;20033;-71
2023/12/22 08:50:59;;;;;;;13.27;2.78;;;;;;;;;;5069915;28;20056;-71
2023/12/22 08:53:25;;;;;;;10.25;2.22;;;;;;;;;;5065115;28;20033;-71
2023/12/22 08:55:51;;;;;;;9.95;1.67;;;;;;;;;;5054237;28;20039;-71
2023/12/22 08:58:18;;;;;;;8.65;1.90;;;;;;;;;;5053967;28;20394;-71
2023/12/22 09:00:44;;;;;;;8.95;1.73;;;;;;;;;;5052587;28;20039;-71
2023/12/22 09:03:10;;;;;;;10.88;1.90;;;;;;;;;;5049279;28;20376;-71
2023/12/22 09:05:36;;;;;;;8.70;2.03;;;;;;;;;;5061510;28;20047;-71
2023/12/22 09:08:02;;;;;;;6.85;1.60;;;;;;;;;;5062724;28;20713;-71
2023/12/22 09:10:27;;;;;;;7.55;1.65;;;;;;;;;;5049823;28;20041;-71
2023/12/22 09:12:53;;;;;;;6.40;1.48;;;;;;;;;;5062810;28;20039;-71
2023/12/22 09:15:19;;;;;;;10.05;1.40;;;;;;;;;;5073681;28;20071;-71
2023/12/22 09:17:45;;;;;;;7.43;1.55;;;;;;;;;;5062472;28;20040;-72
2023/12/22 09:20:12;;;;;;;8.50;1.23;;;;;;;;;;5056988;28;20033;-70
2023/12/22 09:22:38;;;;;;;8.93;1.75;;;;;;;;;;5053296;28;20045;-71
2023/12/22 09:25:04;;;;;;;7.68;1.40;;;;;;;;;;5053321;28;20040;-71
2023/12/22 09:27:30;;;;;;;4.63;0.90;;;;;;;;;;5052581;28;20037;-71
2023/12/22 09:29:57;;;;;;;5.68;1.10;;;;;;;;;;5053146;28;20111;-71
2023/12/22 09:32:22;;;;;;;13.02;1.30;;;;;;;;;;5052917;28;20079;-72
2023/12/22 09:34:49;;;;;;;6.30;1.60;;;;;;;;;;5050860;28;20033;-72
2023/12/22 09:37:15;;;;;;;8.00;1.40;;;;;;;;;;5050980;28;20071;-71
2023/12/22 09:39:41;;;;;;;3.95;0.93;;;;;;;;;;5067545;28;20068;-71
2023/12/22 09:42:07;;;;;;;4.57;0.90;;;;;;;;;;5065734;28;20048;-71
2023/12/22 09:44:33;;;;;;;3.30;0.90;;;;;;;;;;5070169;28;20072;-71
2023/12/22 09:47:01;;;;;;;3.97;0.85;;;;;;;;;;5068628;28;20036;-71
2023/12/22 09:49:27;;;;;;;6.85;1.10;;;;;;;;;;5070168;28;20047;-71
2023/12/22 09:51:54;;;;;;;7.70;1.33;;;;;;;;;;5065942;28;20569;-71
2023/12/22 09:54:20;;;;;;;3.72;1.08;;;;;;;;;;5056927;28;20501;-71
2023/12/22 09:56:47;;;;;;;8.40;1.45;;;;;;;;;;5066264;28;20394;-71
2023/12/22 09:59:13;;;;;;;8.85;1.50;;;;;;;;;;5070432;28;20448;-71
2023/12/22 10:01:46;;;;;;;7.68;1.50;;;;;;;;;;5069378;28;20126;-71
2023/12/22 10:04:13;;;;;;;8.60;1.20;;;;;;;;;;5066988;28;20362;-71
2023/12/22 10:06:39;;;;;;;5.20;1.35;;;;;;;;;;5056187;28;20037;-71
2023/12/22 10:09:11;;;;;;;8.23;1.30;;;;;;;;;;5070364;28;20032;-71
2023/12/22 10:11:38;;;;;;;7.75;1.52;;;;;;;;;;5060812;28;20099;-71
2023/12/22 10:14:05;;;;;;;4.40;1.17;;;;;;;;;;5067726;28;20066;-72
2023/12/22 10:16:31;;;;;;;6.03;1.25;;;;;;;;;;5067511;28;20098;-72
2023/12/22 10:18:57;;;;;;;10.82;1.63;;;;;;;;;;5064831;28;20036;-71
2023/12/22 10:21:23;;;;;;;8.70;1.60;;;;;;;;;;5056569;28;20040;-72
2023/12/22 10:23:49;;;;;;;7.80;1.40;;;;;;;;;;5051530;28;20032;-72
2023/12/22 10:26:16;;;;;;;8.70;1.30;;;;;;;;;;5051724;28;20036;-72
2023/12/22 10:28:43;;;;;;;6.07;1.30;;;;;;;;;;5052420;28;20043;-71
2023/12/22 10:31:09;;;;;;;8.35;1.75;;;;;;;;;;5044210;28;20032;-71
2023/12/22 10:33:35;;;;;;;9.48;1.90;;;;;;;;;;5051838;28;20037;-71
2023/12/22 10:36:01;;;;;;;12.13;1.92;;;;;;;;;;5058030;28;20099;-71
2023/12/22 10:38:37;;;;;;;10.75;1.88;;;;;;;;;;5052370;28;20052;-71
2023/12/22 10:41:03;;;;;;;8.32;1.33;;;;;;;;;;5054188;28;20552;-71
2023/12/22 10:43:30;;;;;;;10.45;1.80;;;;;;;;;;5052415;28;20105;-71
2023/12/22 10:45:56;;;;;;;12.98;2.30;;;;;;;;;;5054561;28;20126;-71
2023/12/22 10:48:23;;;;;;;13.18;2.30;;;;;;;;;;5076221;22;20069;-67
2023/12/22 10:50:49;;;;;;;7.70;1.92;;;;;;;;;;5042047;28;20041;-66
2023/12/22 10:53:15;;;;;;;9.25;2.00;;;;;;;;;;5037296;28;20583;-67
2023/12/22 10:55:41;;;;;;;13.07;2.35;;;;;;;;;;5043035;28;20479;-67
2023/12/22 10:58:09;;;;;;;8.27;1.80;;;;;;;;;;5043610;28;20518;-67
2023/12/22 11:00:37;;;;;;;9.13;1.70;;;;;;;;;;5046355;28;20036;-67
2023/12/22 11:03:08;;;;;;;8.35;2.05;;;;;;;;;;5042972;28;20048;-67
2023/12/22 11:05:34;;;;;;;7.33;1.60;;;;;;;;;;5048169;28;20057;-68
2023/12/22 11:08:02;;;;;;;9.02;2.10;;;;;;;;;;5052110;28;20099;-68
2023/12/22 11:10:28;;;;;;;7.55;1.95;;;;;;;;;;5051009;28;20487;-67
2023/12/22 11:12:56;;;;;;;12.40;1.90;;;;;;;;;;5041823;28;20037;-67
2023/12/22 11:15:22;;;;;;;8.73;1.63;;;;;;;;;;5050006;28;20045;-67
2023/12/22 11:17:50;;;;;;;8.25;1.63;;;;;;;;;;5045857;28;20045;-67
2023/12/22 11:20:16;;;;;;;6.90;1.40;;;;;;;;;;5045578;28;20041;-67
2023/12/22 11:22:43;;;;;;;6.65;1.45;;;;;;;;;;5050077;28;20041;-67
2023/12/22 11:25:09;;;;;;;5.78;1.10;;;;;;;;;;5051418;28;20502;-67
2023/12/22 11:27:37;;;;;;;5.45;1.25;;;;;;;;;;5051082;28;20063;-67
2023/12/22 11:30:08;;;;;;;6.28;1.27;;;;;;;;;;5050841;28;20075;-67
2023/12/22 11:32:35;;;;;;;4.18;0.82;;;;;;;;;;5046973;28;20033;-68
2023/12/22 11:35:01;;;;;;;3.67;0.90;;;;;;;;;;5037311;28;20391;-68
2023/12/22 11:37:28;;;;;;;2.03;0.57;;;;;;;;;;5047318;28;20041;-68
2023/12/22 11:39:54;;;;;;;3.45;0.90;;;;;;;;;;5050392;28;20048;-68
2023/12/22 11:42:22;;;;;;;4.03;1.10;;;;;;;;;;5045917;28;20392;-68
2023/12/22 11:44:48;;;;;;;3.42;0.73;;;;;;;;;;5048156;28;20037;-68
2023/12/22 11:47:14;;;;;;;4.88;0.93;;;;;;;;;;5046550;28;20040;-68
2023/12/22 11:49:40;;;;;;;2.95;0.80;;;;;;;;;;5049257;28;20049;-68
2023/12/22 11:52:10;;;;;;;3.38;0.60;;;;;;;;;;5046796;28;20502;-68
2023/12/22 11:54:46;;;;;;;5.65;1.02;;;;;;;;;;5048964;28;20080;-68
2023/12/22 11:57:41;;;;;;;3.00;1.02;;;;;;;;;;5046442;28;20550;-68
2023/12/22 12:00:31;;;;;;;5.28;1.08;;;;;;;;;;5029904;28;20100;-68
2023/12/22 12:02:57;;;;;;;6.40;1.00;;;;;;;;;;5043613;28;20041;-68
2023/12/22 12:05:23;;;;;;;6.70;1.15;;;;;;;;;;5050392;28;20048;-68
2023/12/22 12:07:50;;;;;;;6.25;1.10;;;;;;;;;;5049485;28;20076;-68
2023/12/22 12:10:42;;;;;;;5.72;1.10;;;;;;;;;;5042256;28;20045;-68
2023/12/22 12:13:08;;;;;;;7.72;1.33;;;;;;;;;;4999583;28;20056;-68
2023/12/22 12:15:35;;;;;;;4.82;1.35;;;;;;;;;;5043799;28;20045;-68
2023/12/22 12:18:01;;;;;;;7.53;1.38;;;;;;;;;;5026428;28;20152;-68
2023/12/22 12:20:27;;;;;;;6.18;1.33;;;;;;;;;;5047389;28;20041;-68
2023/12/22 12:22:54;;;;;;;4.65;1.20;;;;;;;;;;5046325;28;20043;-67
2023/12/22 12:25:25;;;;;;;7.13;1.05;;;;;;;;;;5050375;28;20041;-67
2023/12/22 12:27:51;;;;;;;8.88;1.40;;;;;;;;;;5045950;28;20040;-67
2023/12/22 12:30:17;;;;;;;7.50;1.08;;;;;;;;;;5044836;28;20127;-67
2023/12/22 12:32:46;;;;;;;4.10;0.98;;;;;;;;;;5050407;28;20166;-67
2023/12/22 12:35:13;;;;;;;8.60;1.38;;;;;;;;;;5050525;28;20059;-67
2023/12/22 12:37:39;;;;;;;7.68;1.25;;;;;;;;;;5049424;28;20078;-68
2023/12/22 12:40:08;;;;;;;6.13;1.10;;;;;;;;;;5043476;28;20052;-68
2023/12/22 12:42:36;;;;;;;7.18;1.52;;;;;;;;;;5047303;28;20068;-68
2023/12/22 12:45:03;;;;;;;6.32;1.38;;;;;;;;;;5049557;28;20029;-68
2023/12/22 12:47:29;;;;;;;10.32;1.25;;;;;;;;;;5048039;28;20552;-68
2023/12/22 12:49:59;;;;;;;10.70;1.13;;;;;;;;;;5049418;28;20033;-68
2023/12/22 12:52:25;;;;;;;6.20;1.40;;;;;;;;;;5050685;28;20064;-68
2023/12/22 12:54:51;;;;;;;6.97;1.17;;;;;;;;;;5050694;28;20049;-68
2023/12/22 12:57:18;;;;;;;6.55;1.20;;;;;;;;;;5048447;28;20466;-68
2023/12/22 12:59:50;;;;;;;7.28;1.55;;;;;;;;;;5048529;28;20053;-68
2023/12/22 13:02:16;;;;;;;6.97;1.20;;;;;;;;;;5045623;28;20045;-68
2023/12/22 13:04:42;;;;;;;6.03;1.23;;;;;;;;;;5039782;28;20179;-68
2023/12/22 13:07:12;;;;;;;8.35;1.25;;;;;;;;;;5049622;28;20120;-68
2023/12/22 13:09:39;;;;;;;7.35;1.05;;;;;;;;;;5047762;28;20124;-68
2023/12/22 13:12:05;;;;;;;3.05;0.90;;;;;;;;;;5033367;28;20037;-68
2023/12/22 13:14:31;;;;;;;5.60;1.13;;;;;;;;;;5039859;28;20037;-68
2023/12/22 13:16:58;;;;;;;4.25;0.75;;;;;;;;;;5044913;28;20510;-68
2023/12/22 13:19:25;;;;;;;6.00;1.80;;;;;;;;;;5049703;28;20037;-68
2023/12/22 13:21:52;;;;;;;7.05;2.05;;;;;;;;;;5030160;28;20521;-68
2023/12/22 13:24:18;;;;;;;5.03;1.40;;;;;;;;;;5053173;28;20041;-68
2023/12/22 13:26:44;;;;;;;8.95;1.65;;;;;;;;;;5043148;28;20146;-68
2023/12/22 13:29:11;;;;;;;5.43;2.25;;;;;;;;;;5053974;28;20047;-68
2023/12/22 13:31:38;;;;;;;6.70;1.65;;;;;;;;;;5051349;28;20115;-69
2023/12/22 13:34:09;;;;;;;5.53;1.02;;;;;;;;;;5032181;28;20475;-68
2023/12/22 13:36:36;;;;;;;6.55;1.10;;;;;;;;;;5048841;28;20124;-69
2023/12/22 13:39:04;;;;;;;6.90;1.40;;;;;;;;;;5048316;28;20080;-69
2023/12/22 13:41:30;;;;;;;7.00;2.05;;;;;;;;;;5052093;28;20040;-69
2023/12/22 13:43:57;;;;;;;6.93;2.40;;;;;;;;;;5053609;28;20124;-69
2023/12/22 13:46:27;;;;;;;8.70;2.30;;;;;;;;;;5051747;28;20391;-68
2023/12/22 13:48:54;;;;;;;8.13;1.40;;;;;;;;;;5041578;28;20043;-68
2023/12/22 13:51:20;;;;;;;5.63;1.50;;;;;;;;;;5053253;28;20041;-68
2023/12/22 13:53:50;;;;;;;12.60;1.52;;;;;;;;;;5033459;28;20025;-68
2023/12/22 13:56:16;;;;;;;9.77;1.90;;;;;;;;;;5048941;28;20036;-68
2023/12/22 13:58:45;;;;;;;14.77;5.93;;;;;;;;;;5047684;28;20047;-68
2023/12/22 14:01:15;;;;;;;9.52;3.38;;;;;;;;;;5046266;28;20033;-69
2023/12/22 14:03:41;;;;;;;9.57;2.85;;;;;;;;;;5051561;28;20083;-69
2023/12/22 14:06:09;;;;;;;8.27;4.00;;;;;;;;;;5051607;28;20536;-68
2023/12/22 14:08:35;;;;;;;9.20;1.40;;;;;;;;;;5044830;28;20036;-68
2023/12/22 14:11:01;;;;;;;6.35;1.13;;;;;;;;;;5042872;28;20033;-68
2023/12/22 14:13:27;;;;;;;9.30;2.05;;;;;;;;;;5050107;28;20040;-68
2023/12/22 14:15:53;;;;;;;8.27;2.42;;;;;;;;;;5050781;28;20487;-68
2023/12/22 14:18:19;;;;;;;8.05;3.13;;;;;;;;;;5029142;28;20052;-68
2023/12/22 14:20:46;;;;;;;11.88;6.70;;;;;;;;;;5049461;28;20045;-68
2023/12/22 14:23:16;;;;;;;9.65;1.83;;;;;;;;;;5049314;28;20055;-68
2023/12/22 14:25:42;;;;;;;9.40;5.50;;;;;;;;;;5047969;28;20119;-68
2023/12/22 14:28:08;;;;;;;7.28;1.63;;;;;;;;;;5040710;28;20566;-69
2023/12/22 14:30:34;;;;;;;5.45;2.47;;;;;;;;;;5047418;28;20052;-69
2023/12/22 14:33:00;;;;;;;3.63;1.40;;;;;;;;;;5046839;28;20041;-69